sensor_id;sensor_type;location;lat;lon;timestamp;temperature;humidity
17170;DHT22;8700;48.222;16.342;2023-08-08T00:02:44;15.70;99.90
17170;DHT22;8700;48.222;16.342;2023-08-08T00:06:05;15.60;99.90
17170;DHT22;8700;48.222;16.342;2023-08-08T00:09:26;15.70;99.90
17170;DHT22;8700;48.222;16.342;2023-08-08T00:12:50;15.60;99.90
17170;DHT22;8700;48.222;16.342;2023-08-08T00:16:11;15.80;99.90
17170;DHT22;8700;48.222;16.342;2023-08-08T00:19:33;15.80;99.90
17170;DHT22;8700;48.222;16.342;2023-08-08T00:22:54;15.80;99.90
17170;DHT22;8700;48.222;16.342;2023-08-08T00:26:15;15.80;99.90
17170;DHT22;8700;48.222;16.342;2023-08-08T00:29:37;15.70;99.90
17170;DHT22;8700;48.222;16.342;2023-08-08T00:32:59;15.70;99.90
17170;DHT22;8700;48.222;16.342;2023-08-08T00:36:20;15.80;99.90
17170;DHT22;8700;48.222;16.342;2023-08-08T00:39:41;15.80;99.90
17170;DHT22;8700;48.222;16.342;2023-08-08T00:43:05;15.70;99.90
17170;DHT22;8700;48.222;16.342;2023-08-08T00:46:28;15.80;99.90
17170;DHT22;8700;48.222;16.342;2023-08-08T00:49:49;15.80;99.90
17170;DHT22;8700;48.222;16.342;2023-08-08T00:53:10;15.80;99.90
17170;DHT22;8700;48.222;16.342;2023-08-08T00:56:32;15.80;99.90
17170;DHT22;8700;48.222;16.342;2023-08-08T00:59:55;15.70;99.90
17170;DHT22;8700;48.222;16.342;2023-08-08T01:03:18;15.60;99.90
17170;DHT22;8700;48.222;16.342;2023-08-08T01:06:50;15.70;99.90
17170;DHT22;8700;48.222;16.342;2023-08-08T01:10:15;15.80;99.90
17170;DHT22;8700;48.222;16.342;2023-08-08T01:13:38;15.70;99.90
17170;DHT22;8700;48.222;16.342;2023-08-08T01:17:01;15.70;99.90
17170;DHT22;8700;48.222;16.342;2023-08-08T01:20:25;15.70;99.90
17170;DHT22;8700;48.222;16.342;2023-08-08T01:23:53;15.70;99.90
17170;DHT22;8700;48.222;16.342;2023-08-08T01:27:16;15.70;99.90
17170;DHT22;8700;48.222;16.342;2023-08-08T01:30:37;15.70;99.90
17170;DHT22;8700;48.222;16.342;2023-08-08T01:33:59;15.80;99.90
17170;DHT22;8700;48.222;16.342;2023-08-08T01:37:24;15.60;99.90
17170;DHT22;8700;48.222;16.342;2023-08-08T01:40:47;15.60;99.90
17170;DHT22;8700;48.222;16.342;2023-08-08T01:44:10;15.60;99.90
17170;DHT22;8700;48.222;16.342;2023-08-08T01:47:32;15.60;99.90
17170;DHT22;8700;48.222;16.342;2023-08-08T01:50:53;15.50;99.90
17170;DHT22;8700;48.222;16.342;2023-08-08T01:54:14;15.50;99.90
17170;DHT22;8700;48.222;16.342;2023-08-08T01:57:35;15.60;99.90
17170;DHT22;8700;48.222;16.342;2023-08-08T02:00:58;15.50;99.90
17170;DHT22;8700;48.222;16.342;2023-08-08T02:04:20;15.40;99.90
17170;DHT22;8700;48.222;16.342;2023-08-08T02:07:41;15.50;99.90
17170;DHT22;8700;48.222;16.342;2023-08-08T02:11:03;15.60;99.90
17170;DHT22;8700;48.222;16.342;2023-08-08T02:14:24;15.60;99.90
17170;DHT22;8700;48.222;16.342;2023-08-08T02:17:46;15.60;99.90
17170;DHT22;8700;48.222;16.342;2023-08-08T02:21:08;15.60;99.90
17170;DHT22;8700;48.222;16.342;2023-08-08T02:24:29;15.60;99.90
17170;DHT22;8700;48.222;16.342;2023-08-08T02:27:50;15.60;99.90
17170;DHT22;8700;48.222;16.342;2023-08-08T02:31:11;15.70;99.90
17170;DHT22;8700;48.222;16.342;2023-08-08T02:34:36;15.60;99.90
17170;DHT22;8700;48.222;16.342;2023-08-08T02:37:58;15.60;99.90
17170;DHT22;8700;48.222;16.342;2023-08-08T02:41:19;15.60;99.90
17170;DHT22;8700;48.222;16.342;2023-08-08T02:44:40;15.50;99.90
17170;DHT22;8700;48.222;16.342;2023-08-08T02:48:02;15.60;99.90
17170;DHT22;8700;48.222;16.342;2023-08-08T02:51:24;15.60;99.90
17170;DHT22;8700;48.222;16.342;2023-08-08T02:54:46;15.50;99.90
17170;DHT22;8700;48.222;16.342;2023-08-08T02:58:07;15.50;99.90
17170;DHT22;8700;48.222;16.342;2023-08-08T03:01:28;15.30;99.90
17170;DHT22;8700;48.222;16.342;2023-08-08T03:04:50;15.30;99.90
17170;DHT22;8700;48.222;16.342;2023-08-08T03:08:12;15.30;99.90
17170;DHT22;8700;48.222;16.342;2023-08-08T03:11:33;15.50;99.90
17170;DHT22;8700;48.222;16.342;2023-08-08T03:14:57;15.50;99.90
17170;DHT22;8700;48.222;16.342;2023-08-08T03:18:18;15.40;99.90
17170;DHT22;8700;48.222;16.342;2023-08-08T03:21:39;15.30;99.90
17170;DHT22;8700;48.222;16.342;2023-08-08T03:25:02;15.40;99.90
17170;DHT22;8700;48.222;16.342;2023-08-08T03:28:24;15.50;99.90
17170;DHT22;8700;48.222;16.342;2023-08-08T03:31:46;15.50;99.90
17170;DHT22;8700;48.222;16.342;2023-08-08T03:35:08;15.30;99.90
17170;DHT22;8700;48.222;16.342;2023-08-08T03:38:30;15.20;99.90
17170;DHT22;8700;48.222;16.342;2023-08-08T03:41:53;15.10;99.90
17170;DHT22;8700;48.222;16.342;2023-08-08T03:45:14;15.10;99.90
17170;DHT22;8700;48.222;16.342;2023-08-08T03:48:35;15.20;99.90
17170;DHT22;8700;48.222;16.342;2023-08-08T03:51:56;15.10;99.90
17170;DHT22;8700;48.222;16.342;2023-08-08T03:55:18;15.00;99.90
17170;DHT22;8700;48.222;16.342;2023-08-08T03:58:40;15.20;99.90
17170;DHT22;8700;48.222;16.342;2023-08-08T04:02:02;15.50;99.90
17170;DHT22;8700;48.222;16.342;2023-08-08T04:05:23;15.60;99.90
17170;DHT22;8700;48.222;16.342;2023-08-08T04:08:45;15.70;99.90
17170;DHT22;8700;48.222;16.342;2023-08-08T04:12:07;15.70;99.90
17170;DHT22;8700;48.222;16.342;2023-08-08T04:15:30;15.60;99.90
17170;DHT22;8700;48.222;16.342;2023-08-08T04:18:51;15.50;99.90
17170;DHT22;8700;48.222;16.342;2023-08-08T04:22:12;15.50;99.90
17170;DHT22;8700;48.222;16.342;2023-08-08T04:25:35;15.60;99.90
17170;DHT22;8700;48.222;16.342;2023-08-08T04:28:56;15.70;99.90
17170;DHT22;8700;48.222;16.342;2023-08-08T04:32:19;16.00;99.90
17170;DHT22;8700;48.222;16.342;2023-08-08T04:35:40;16.00;99.90
17170;DHT22;8700;48.222;16.342;2023-08-08T04:39:01;16.30;99.90
17170;DHT22;8700;48.222;16.342;2023-08-08T04:42:23;16.20;99.90
17170;DHT22;8700;48.222;16.342;2023-08-08T04:45:44;16.30;99.90
17170;DHT22;8700;48.222;16.342;2023-08-08T04:49:09;16.40;99.90
17170;DHT22;8700;48.222;16.342;2023-08-08T04:52:30;16.40;99.90
17170;DHT22;8700;48.222;16.342;2023-08-08T04:55:51;16.50;99.90
17170;DHT22;8700;48.222;16.342;2023-08-08T04:59:13;16.50;99.90
17170;DHT22;8700;48.222;16.342;2023-08-08T05:02:34;16.50;99.90
17170;DHT22;8700;48.222;16.342;2023-08-08T05:05:57;16.50;99.90
17170;DHT22;8700;48.222;16.342;2023-08-08T05:09:19;16.40;99.90
17170;DHT22;8700;48.222;16.342;2023-08-08T05:12:42;16.50;99.90
17170;DHT22;8700;48.222;16.342;2023-08-08T05:16:04;16.50;99.90
17170;DHT22;8700;48.222;16.342;2023-08-08T05:19:26;16.40;99.90
17170;DHT22;8700;48.222;16.342;2023-08-08T05:22:48;16.50;99.90
17170;DHT22;8700;48.222;16.342;2023-08-08T05:26:10;16.70;99.90
17170;DHT22;8700;48.222;16.342;2023-08-08T05:29:31;16.80;99.90
17170;DHT22;8700;48.222;16.342;2023-08-08T05:32:52;17.00;99.90
17170;DHT22;8700;48.222;16.342;2023-08-08T05:36:13;17.00;99.90
17170;DHT22;8700;48.222;16.342;2023-08-08T05:39:36;17.00;99.90
17170;DHT22;8700;48.222;16.342;2023-08-08T05:42:57;17.10;99.90
17170;DHT22;8700;48.222;16.342;2023-08-08T05:46:18;17.10;99.90
17170;DHT22;8700;48.222;16.342;2023-08-08T05:49:40;17.10;99.90
17170;DHT22;8700;48.222;16.342;2023-08-08T05:53:02;17.30;99.90
17170;DHT22;8700;48.222;16.342;2023-08-08T05:56:25;17.30;99.90
17170;DHT22;8700;48.222;16.342;2023-08-08T05:59:46;17.40;99.90
17170;DHT22;8700;48.222;16.342;2023-08-08T06:03:07;17.60;99.90
17170;DHT22;8700;48.222;16.342;2023-08-08T06:06:28;17.60;99.90
17170;DHT22;8700;48.222;16.342;2023-08-08T06:09:50;17.90;99.90
17170;DHT22;8700;48.222;16.342;2023-08-08T06:13:12;17.90;99.90
17170;DHT22;8700;48.222;16.342;2023-08-08T06:16:34;17.90;99.90
17170;DHT22;8700;48.222;16.342;2023-08-08T06:19:55;18.20;99.90
17170;DHT22;8700;48.222;16.342;2023-08-08T06:23:17;18.20;99.90
17170;DHT22;8700;48.222;16.342;2023-08-08T06:26:38;18.20;99.90
17170;DHT22;8700;48.222;16.342;2023-08-08T06:30:00;18.40;99.90
17170;DHT22;8700;48.222;16.342;2023-08-08T06:33:22;18.90;99.90
17170;DHT22;8700;48.222;16.342;2023-08-08T06:36:44;19.60;99.90
17170;DHT22;8700;48.222;16.342;2023-08-08T06:40:07;19.70;99.90
17170;DHT22;8700;48.222;16.342;2023-08-08T06:43:29;19.50;99.90
17170;DHT22;8700;48.222;16.342;2023-08-08T06:46:52;19.40;99.90
17170;DHT22;8700;48.222;16.342;2023-08-08T06:50:13;19.60;99.90
17170;DHT22;8700;48.222;16.342;2023-08-08T06:53:34;19.70;99.90
17170;DHT22;8700;48.222;16.342;2023-08-08T06:56:56;19.60;99.90
17170;DHT22;8700;48.222;16.342;2023-08-08T07:00:17;19.40;99.90
17170;DHT22;8700;48.222;16.342;2023-08-08T07:03:40;19.40;99.90
17170;DHT22;8700;48.222;16.342;2023-08-08T07:07:01;19.60;99.90
17170;DHT22;8700;48.222;16.342;2023-08-08T07:10:23;19.60;99.90
17170;DHT22;8700;48.222;16.342;2023-08-08T07:13:44;19.80;99.90
17170;DHT22;8700;48.222;16.342;2023-08-08T07:17:05;20.00;99.90
17170;DHT22;8700;48.222;16.342;2023-08-08T07:20:31;20.30;99.90
17170;DHT22;8700;48.222;16.342;2023-08-08T07:23:54;20.50;99.90
17170;DHT22;8700;48.222;16.342;2023-08-08T07:27:15;20.50;99.90
17170;DHT22;8700;48.222;16.342;2023-08-08T07:30:37;20.30;99.90
17170;DHT22;8700;48.222;16.342;2023-08-08T07:33:58;20.50;99.90
17170;DHT22;8700;48.222;16.342;2023-08-08T07:37:20;20.70;99.90
17170;DHT22;8700;48.222;16.342;2023-08-08T07:40:42;21.10;99.90
17170;DHT22;8700;48.222;16.342;2023-08-08T07:44:04;21.20;99.90
17170;DHT22;8700;48.222;16.342;2023-08-08T07:47:25;21.00;99.90
17170;DHT22;8700;48.222;16.342;2023-08-08T07:50:46;20.90;99.90
17170;DHT22;8700;48.222;16.342;2023-08-08T07:54:09;20.60;99.90
17170;DHT22;8700;48.222;16.342;2023-08-08T07:57:31;20.40;99.90
17170;DHT22;8700;48.222;16.342;2023-08-08T08:00:54;20.40;99.90
17170;DHT22;8700;48.222;16.342;2023-08-08T08:04:15;21.00;99.90
17170;DHT22;8700;48.222;16.342;2023-08-08T08:07:37;21.40;99.90
17170;DHT22;8700;48.222;16.342;2023-08-08T08:11:01;21.10;99.90
17170;DHT22;8700;48.222;16.342;2023-08-08T08:14:22;21.00;99.90
17170;DHT22;8700;48.222;16.342;2023-08-08T08:17:44;21.30;99.90
17170;DHT22;8700;48.222;16.342;2023-08-08T08:21:05;21.20;99.90
17170;DHT22;8700;48.222;16.342;2023-08-08T08:24:26;21.30;99.90
17170;DHT22;8700;48.222;16.342;2023-08-08T08:27:49;20.90;99.90
17170;DHT22;8700;48.222;16.342;2023-08-08T08:31:10;20.60;99.90
17170;DHT22;8700;48.222;16.342;2023-08-08T08:34:31;21.00;99.90
17170;DHT22;8700;48.222;16.342;2023-08-08T08:37:53;20.90;99.90
17170;DHT22;8700;48.222;16.342;2023-08-08T08:41:17;21.20;99.90
17170;DHT22;8700;48.222;16.342;2023-08-08T08:44:40;21.00;99.90
17170;DHT22;8700;48.222;16.342;2023-08-08T08:48:04;20.70;99.90
17170;DHT22;8700;48.222;16.342;2023-08-08T08:51:29;20.80;99.90
17170;DHT22;8700;48.222;16.342;2023-08-08T08:54:51;20.60;99.90
17170;DHT22;8700;48.222;16.342;2023-08-08T08:58:14;20.50;99.90
17170;DHT22;8700;48.222;16.342;2023-08-08T09:01:37;20.80;99.90
17170;DHT22;8700;48.222;16.342;2023-08-08T09:05:00;21.30;99.90
17170;DHT22;8700;48.222;16.342;2023-08-08T09:08:22;22.20;99.90
17170;DHT22;8700;48.222;16.342;2023-08-08T09:11:45;23.60;96.80
17170;DHT22;8700;48.222;16.342;2023-08-08T09:15:07;23.90;95.60
17170;DHT22;8700;48.222;16.342;2023-08-08T09:18:31;24.20;93.70
17170;DHT22;8700;48.222;16.342;2023-08-08T09:21:53;24.60;92.70
17170;DHT22;8700;48.222;16.342;2023-08-08T09:25:14;26.10;90.10
17170;DHT22;8700;48.222;16.342;2023-08-08T09:28:35;27.30;83.40
17170;DHT22;8700;48.222;16.342;2023-08-08T09:31:57;27.40;79.10
17170;DHT22;8700;48.222;16.342;2023-08-08T09:35:22;28.10;75.70
17170;DHT22;8700;48.222;16.342;2023-08-08T09:38:47;27.80;75.80
17170;DHT22;8700;48.222;16.342;2023-08-08T09:42:08;27.90;72.60
17170;DHT22;8700;48.222;16.342;2023-08-08T09:45:37;28.00;71.60
17170;DHT22;8700;48.222;16.342;2023-08-08T09:48:59;29.30;69.60
17170;DHT22;8700;48.222;16.342;2023-08-08T09:52:21;29.60;67.20
17170;DHT22;8700;48.222;16.342;2023-08-08T09:55:43;29.80;65.10
17170;DHT22;8700;48.222;16.342;2023-08-08T09:59:05;28.60;65.50
17170;DHT22;8700;48.222;16.342;2023-08-08T10:02:28;28.20;66.00
17170;DHT22;8700;48.222;16.342;2023-08-08T10:05:50;29.50;65.10
17170;DHT22;8700;48.222;16.342;2023-08-08T10:09:12;29.80;63.00
17170;DHT22;8700;48.222;16.342;2023-08-08T10:12:34;27.70;65.40
17170;DHT22;8700;48.222;16.342;2023-08-08T10:15:56;28.50;64.70
17170;DHT22;8700;48.222;16.342;2023-08-08T10:19:22;28.90;63.50
17170;DHT22;8700;48.222;16.342;2023-08-08T10:22:45;30.20;61.70
17170;DHT22;8700;48.222;16.342;2023-08-08T10:26:18;30.50;60.80
17170;DHT22;8700;48.222;16.342;2023-08-08T10:29:40;28.30;63.00
17170;DHT22;8700;48.222;16.342;2023-08-08T10:33:01;29.30;62.10
17170;DHT22;8700;48.222;16.342;2023-08-08T10:36:24;29.10;60.90
17170;DHT22;8700;48.222;16.342;2023-08-08T10:39:52;29.20;59.60
17170;DHT22;8700;48.222;16.342;2023-08-08T10:43:15;29.00;59.70
17170;DHT22;8700;48.222;16.342;2023-08-08T10:46:40;28.90;59.70
17170;DHT22;8700;48.222;16.342;2023-08-08T10:50:04;29.60;58.40
17170;DHT22;8700;48.222;16.342;2023-08-08T10:53:27;29.80;59.40
17170;DHT22;8700;48.222;16.342;2023-08-08T10:56:50;29.50;58.20
17170;DHT22;8700;48.222;16.342;2023-08-08T11:00:19;30.40;57.80
17170;DHT22;8700;48.222;16.342;2023-08-08T11:03:41;30.50;56.20
17170;DHT22;8700;48.222;16.342;2023-08-08T11:07:02;29.90;56.40
17170;DHT22;8700;48.222;16.342;2023-08-08T11:10:24;30.60;56.90
17170;DHT22;8700;48.222;16.342;2023-08-08T11:13:51;31.80;56.00
17170;DHT22;8700;48.222;16.342;2023-08-08T11:17:14;30.70;55.40
17170;DHT22;8700;48.222;16.342;2023-08-08T11:20:36;29.30;55.90
17170;DHT22;8700;48.222;16.342;2023-08-08T11:23:58;28.00;57.20
17170;DHT22;8700;48.222;16.342;2023-08-08T11:27:19;28.80;57.50
17170;DHT22;8700;48.222;16.342;2023-08-08T11:30:42;29.70;56.10
17170;DHT22;8700;48.222;16.342;2023-08-08T11:34:05;30.10;55.90
17170;DHT22;8700;48.222;16.342;2023-08-08T11:37:26;29.80;55.70
17170;DHT22;8700;48.222;16.342;2023-08-08T11:40:48;29.80;56.00
17170;DHT22;8700;48.222;16.342;2023-08-08T11:44:09;29.50;55.70
17170;DHT22;8700;48.222;16.342;2023-08-08T11:47:32;28.70;55.60
17170;DHT22;8700;48.222;16.342;2023-08-08T11:50:57;29.00;55.10
17170;DHT22;8700;48.222;16.342;2023-08-08T11:54:19;27.70;56.20
17170;DHT22;8700;48.222;16.342;2023-08-08T11:57:40;27.10;57.30
17170;DHT22;8700;48.222;16.342;2023-08-08T12:01:01;26.90;56.90
17170;DHT22;8700;48.222;16.342;2023-08-08T12:04:23;26.60;57.40
17170;DHT22;8700;48.222;16.342;2023-08-08T12:07:47;26.40;57.70
17170;DHT22;8700;48.222;16.342;2023-08-08T12:11:09;26.20;57.50
17170;DHT22;8700;48.222;16.342;2023-08-08T12:14:30;26.20;58.00
17170;DHT22;8700;48.222;16.342;2023-08-08T12:17:52;26.20;58.00
17170;DHT22;8700;48.222;16.342;2023-08-08T12:21:14;25.60;58.30
17170;DHT22;8700;48.222;16.342;2023-08-08T12:24:37;26.10;58.60
17170;DHT22;8700;48.222;16.342;2023-08-08T12:27:58;25.90;58.30
17170;DHT22;8700;48.222;16.342;2023-08-08T12:31:19;26.20;58.00
17170;DHT22;8700;48.222;16.342;2023-08-08T12:34:40;26.40;58.30
17170;DHT22;8700;48.222;16.342;2023-08-08T12:38:01;26.00;58.70
17170;DHT22;8700;48.222;16.342;2023-08-08T12:41:24;26.40;58.20
17170;DHT22;8700;48.222;16.342;2023-08-08T12:44:46;25.90;58.40
17170;DHT22;8700;48.222;16.342;2023-08-08T12:48:11;25.60;59.20
17170;DHT22;8700;48.222;16.342;2023-08-08T12:51:32;25.50;59.10
17170;DHT22;8700;48.222;16.342;2023-08-08T12:54:53;25.50;59.10
17170;DHT22;8700;48.222;16.342;2023-08-08T12:58:17;25.70;58.70
17170;DHT22;8700;48.222;16.342;2023-08-08T13:01:38;25.60;58.40
17170;DHT22;8700;48.222;16.342;2023-08-08T13:05:00;25.50;58.00
17170;DHT22;8700;48.222;16.342;2023-08-08T13:08:23;25.90;58.30
17170;DHT22;8700;48.222;16.342;2023-08-08T13:11:44;26.70;58.30
17170;DHT22;8700;48.222;16.342;2023-08-08T13:15:07;26.50;57.10
17170;DHT22;8700;48.222;16.342;2023-08-08T13:18:29;26.70;57.20
17170;DHT22;8700;48.222;16.342;2023-08-08T13:21:50;26.90;57.10
17170;DHT22;8700;48.222;16.342;2023-08-08T13:25:11;26.60;56.80
17170;DHT22;8700;48.222;16.342;2023-08-08T13:28:33;26.40;57.00
17170;DHT22;8700;48.222;16.342;2023-08-08T13:31:55;26.00;57.10
17170;DHT22;8700;48.222;16.342;2023-08-08T13:35:16;25.90;57.60
17170;DHT22;8700;48.222;16.342;2023-08-08T13:38:38;26.30;56.80
17170;DHT22;8700;48.222;16.342;2023-08-08T13:41:59;26.50;56.70
17170;DHT22;8700;48.222;16.342;2023-08-08T13:45:21;26.40;57.40
17170;DHT22;8700;48.222;16.342;2023-08-08T13:48:43;26.80;56.80
17170;DHT22;8700;48.222;16.342;2023-08-08T13:52:05;26.60;56.60
17170;DHT22;8700;48.222;16.342;2023-08-08T13:55:26;26.90;56.20
17170;DHT22;8700;48.222;16.342;2023-08-08T13:58:48;27.10;55.70
17170;DHT22;8700;48.222;16.342;2023-08-08T14:02:09;27.10;55.10
17170;DHT22;8700;48.222;16.342;2023-08-08T14:05:32;27.10;54.80
17170;DHT22;8700;48.222;16.342;2023-08-08T14:08:53;26.20;55.80
17170;DHT22;8700;48.222;16.342;2023-08-08T14:12:14;26.00;56.00
17170;DHT22;8700;48.222;16.342;2023-08-08T14:15:36;26.40;55.90
17170;DHT22;8700;48.222;16.342;2023-08-08T14:18:57;26.60;55.90
17170;DHT22;8700;48.222;16.342;2023-08-08T14:22:20;27.20;55.20
17170;DHT22;8700;48.222;16.342;2023-08-08T14:25:41;27.00;55.60
17170;DHT22;8700;48.222;16.342;2023-08-08T14:29:03;27.50;55.40
17170;DHT22;8700;48.222;16.342;2023-08-08T14:32:24;27.80;54.70
17170;DHT22;8700;48.222;16.342;2023-08-08T14:35:45;27.90;53.40
17170;DHT22;8700;48.222;16.342;2023-08-08T14:39:08;26.80;54.00
17170;DHT22;8700;48.222;16.342;2023-08-08T14:42:30;26.90;54.10
17170;DHT22;8700;48.222;16.342;2023-08-08T14:45:52;26.60;53.70
17170;DHT22;8700;48.222;16.342;2023-08-08T14:49:13;26.70;54.50
17170;DHT22;8700;48.222;16.342;2023-08-08T14:52:34;27.10;53.90
17170;DHT22;8700;48.222;16.342;2023-08-08T14:55:57;27.00;53.90
17170;DHT22;8700;48.222;16.342;2023-08-08T14:59:18;27.30;54.10
17170;DHT22;8700;48.222;16.342;2023-08-08T15:02:39;27.60;54.10
17170;DHT22;8700;48.222;16.342;2023-08-08T15:06:01;27.30;54.60
17170;DHT22;8700;48.222;16.342;2023-08-08T15:09:22;27.20;54.50
17170;DHT22;8700;48.222;16.342;2023-08-08T15:12:45;27.20;54.80
17170;DHT22;8700;48.222;16.342;2023-08-08T15:16:06;27.10;55.10
17170;DHT22;8700;48.222;16.342;2023-08-08T15:19:28;26.90;55.50
17170;DHT22;8700;48.222;16.342;2023-08-08T15:22:49;26.80;56.50
17170;DHT22;8700;48.222;16.342;2023-08-08T15:26:10;26.60;56.40
17170;DHT22;8700;48.222;16.342;2023-08-08T15:29:33;26.30;56.20
17170;DHT22;8700;48.222;16.342;2023-08-08T15:32:54;26.10;56.70
17170;DHT22;8700;48.222;16.342;2023-08-08T15:36:15;26.00;56.80
17170;DHT22;8700;48.222;16.342;2023-08-08T15:39:37;26.00;56.80
17170;DHT22;8700;48.222;16.342;2023-08-08T15:42:58;26.10;57.20
17170;DHT22;8700;48.222;16.342;2023-08-08T15:46:20;26.30;56.80
17170;DHT22;8700;48.222;16.342;2023-08-08T15:49:41;26.60;56.70
17170;DHT22;8700;48.222;16.342;2023-08-08T15:53:03;26.70;56.40
17170;DHT22;8700;48.222;16.342;2023-08-08T15:56:24;26.40;57.00
17170;DHT22;8700;48.222;16.342;2023-08-08T15:59:46;26.50;57.60
17170;DHT22;8700;48.222;16.342;2023-08-08T16:03:08;26.50;57.10
17170;DHT22;8700;48.222;16.342;2023-08-08T16:06:30;26.50;57.30
17170;DHT22;8700;48.222;16.342;2023-08-08T16:09:51;26.20;57.80
17170;DHT22;8700;48.222;16.342;2023-08-08T16:13:12;26.30;57.60
17170;DHT22;8700;48.222;16.342;2023-08-08T16:16:33;26.40;57.70
17170;DHT22;8700;48.222;16.342;2023-08-08T16:19:56;26.30;57.20
17170;DHT22;8700;48.222;16.342;2023-08-08T16:23:18;26.20;57.70
17170;DHT22;8700;48.222;16.342;2023-08-08T16:26:40;26.20;57.70
17170;DHT22;8700;48.222;16.342;2023-08-08T16:30:01;25.80;57.60
17170;DHT22;8700;48.222;16.342;2023-08-08T16:33:23;25.50;58.50
17170;DHT22;8700;48.222;16.342;2023-08-08T16:36:45;25.40;58.60
17170;DHT22;8700;48.222;16.342;2023-08-08T16:40:08;25.20;58.90
17170;DHT22;8700;48.222;16.342;2023-08-08T16:43:29;25.30;58.90
17170;DHT22;8700;48.222;16.342;2023-08-08T16:46:52;25.40;58.90
17170;DHT22;8700;48.222;16.342;2023-08-08T16:50:13;25.10;59.00
17170;DHT22;8700;48.222;16.342;2023-08-08T16:53:35;24.90;59.60
17170;DHT22;8700;48.222;16.342;2023-08-08T16:56:56;24.60;61.10
17170;DHT22;8700;48.222;16.342;2023-08-08T17:00:18;24.30;62.90
17170;DHT22;8700;48.222;16.342;2023-08-08T17:03:39;24.20;63.50
17170;DHT22;8700;48.222;16.342;2023-08-08T17:07:01;24.20;63.60
17170;DHT22;8700;48.222;16.342;2023-08-08T17:10:24;24.10;63.60
17170;DHT22;8700;48.222;16.342;2023-08-08T17:13:45;24.00;64.20
17170;DHT22;8700;48.222;16.342;2023-08-08T17:17:07;24.00;64.40
17170;DHT22;8700;48.222;16.342;2023-08-08T17:20:28;23.80;65.20
17170;DHT22;8700;48.222;16.342;2023-08-08T17:23:49;23.80;65.50
17170;DHT22;8700;48.222;16.342;2023-08-08T17:27:12;24.00;65.50
17170;DHT22;8700;48.222;16.342;2023-08-08T17:30:33;23.90;66.00
17170;DHT22;8700;48.222;16.342;2023-08-08T17:33:54;23.80;66.50
17170;DHT22;8700;48.222;16.342;2023-08-08T17:37:18;23.70;67.00
17170;DHT22;8700;48.222;16.342;2023-08-08T17:40:40;23.60;67.10
17170;DHT22;8700;48.222;16.342;2023-08-08T17:44:03;23.50;67.80
17170;DHT22;8700;48.222;16.342;2023-08-08T17:47:24;23.40;68.20
17170;DHT22;8700;48.222;16.342;2023-08-08T17:50:45;23.30;68.80
17170;DHT22;8700;48.222;16.342;2023-08-08T17:54:07;23.30;68.90
17170;DHT22;8700;48.222;16.342;2023-08-08T17:57:28;23.40;69.80
17170;DHT22;8700;48.222;16.342;2023-08-08T18:00:51;23.40;69.40
17170;DHT22;8700;48.222;16.342;2023-08-08T18:04:12;23.30;69.90
17170;DHT22;8700;48.222;16.342;2023-08-08T18:07:33;23.30;70.30
17170;DHT22;8700;48.222;16.342;2023-08-08T18:10:54;23.30;70.60
17170;DHT22;8700;48.222;16.342;2023-08-08T18:14:16;23.30;70.90
17170;DHT22;8700;48.222;16.342;2023-08-08T18:17:38;23.20;71.50
17170;DHT22;8700;48.222;16.342;2023-08-08T18:20:59;23.20;71.80
17170;DHT22;8700;48.222;16.342;2023-08-08T18:24:21;23.20;71.90
17170;DHT22;8700;48.222;16.342;2023-08-08T18:27:42;23.20;72.20
17170;DHT22;8700;48.222;16.342;2023-08-08T18:31:03;23.00;74.10
17170;DHT22;8700;48.222;16.342;2023-08-08T18:34:26;22.90;76.60
17170;DHT22;8700;48.222;16.342;2023-08-08T18:37:54;22.70;78.10
17170;DHT22;8700;48.222;16.342;2023-08-08T18:41:15;22.50;78.50
17170;DHT22;8700;48.222;16.342;2023-08-08T18:44:36;22.40;80.90
17170;DHT22;8700;48.222;16.342;2023-08-08T18:47:57;22.30;81.20
17170;DHT22;8700;48.222;16.342;2023-08-08T18:51:20;22.30;82.80
17170;DHT22;8700;48.222;16.342;2023-08-08T18:54:41;22.00;86.70
17170;DHT22;8700;48.222;16.342;2023-08-08T18:58:02;21.80;90.00
17170;DHT22;8700;48.222;16.342;2023-08-08T19:01:24;21.70;91.20
17170;DHT22;8700;48.222;16.342;2023-08-08T19:04:45;21.70;93.10
17170;DHT22;8700;48.222;16.342;2023-08-08T19:08:07;21.40;95.90
17170;DHT22;8700;48.222;16.342;2023-08-08T19:11:28;21.30;98.40
17170;DHT22;8700;48.222;16.342;2023-08-08T19:14:49;21.10;99.90
17170;DHT22;8700;48.222;16.342;2023-08-08T19:18:10;20.90;99.90
17170;DHT22;8700;48.222;16.342;2023-08-08T19:21:33;20.80;99.90
17170;DHT22;8700;48.222;16.342;2023-08-08T19:24:56;20.70;99.90
17170;DHT22;8700;48.222;16.342;2023-08-08T19:28:17;20.60;99.90
17170;DHT22;8700;48.222;16.342;2023-08-08T19:31:38;20.40;99.90
17170;DHT22;8700;48.222;16.342;2023-08-08T19:35:00;20.40;99.90
17170;DHT22;8700;48.222;16.342;2023-08-08T19:38:21;20.30;99.90
17170;DHT22;8700;48.222;16.342;2023-08-08T19:41:44;20.40;99.90
17170;DHT22;8700;48.222;16.342;2023-08-08T19:45:05;20.20;99.90
17170;DHT22;8700;48.222;16.342;2023-08-08T19:48:27;20.00;99.90
17170;DHT22;8700;48.222;16.342;2023-08-08T19:51:48;20.00;99.90
17170;DHT22;8700;48.222;16.342;2023-08-08T19:55:10;19.90;99.90
17170;DHT22;8700;48.222;16.342;2023-08-08T19:58:33;19.80;99.90
17170;DHT22;8700;48.222;16.342;2023-08-08T20:01:55;19.70;99.90
17170;DHT22;8700;48.222;16.342;2023-08-08T20:05:17;19.70;99.90
17170;DHT22;8700;48.222;16.342;2023-08-08T20:08:39;19.70;99.90
17170;DHT22;8700;48.222;16.342;2023-08-08T20:12:00;19.80;99.90
17170;DHT22;8700;48.222;16.342;2023-08-08T20:15:23;19.60;99.90
17170;DHT22;8700;48.222;16.342;2023-08-08T20:18:44;19.60;99.90
17170;DHT22;8700;48.222;16.342;2023-08-08T20:22:05;19.60;99.90
17170;DHT22;8700;48.222;16.342;2023-08-08T20:25:27;19.50;99.90
17170;DHT22;8700;48.222;16.342;2023-08-08T20:28:49;19.40;99.90
17170;DHT22;8700;48.222;16.342;2023-08-08T20:32:11;19.30;99.90
17170;DHT22;8700;48.222;16.342;2023-08-08T20:35:33;19.30;99.90
17170;DHT22;8700;48.222;16.342;2023-08-08T20:38:54;19.10;99.90
17170;DHT22;8700;48.222;16.342;2023-08-08T20:42:15;19.10;99.90
17170;DHT22;8700;48.222;16.342;2023-08-08T20:45:36;19.20;99.90
17170;DHT22;8700;48.222;16.342;2023-08-08T20:48:59;19.20;99.90
17170;DHT22;8700;48.222;16.342;2023-08-08T20:52:21;19.10;99.90
17170;DHT22;8700;48.222;16.342;2023-08-08T20:55:42;19.00;99.90
17170;DHT22;8700;48.222;16.342;2023-08-08T20:59:04;18.90;99.90
17170;DHT22;8700;48.222;16.342;2023-08-08T21:02:26;18.80;99.90
17170;DHT22;8700;48.222;16.342;2023-08-08T21:05:48;18.70;99.90
17170;DHT22;8700;48.222;16.342;2023-08-08T21:09:11;18.60;99.90
17170;DHT22;8700;48.222;16.342;2023-08-08T21:12:32;18.50;99.90
17170;DHT22;8700;48.222;16.342;2023-08-08T21:15:53;18.50;99.90